createdAt,value
2022-12-01T00:01:06.833Z,102824.75
2022-12-01T00:03:34.959Z,102827.19
2022-12-01T00:06:25.642Z,102820.00
2022-12-01T00:09:15.175Z,102823.44
2022-12-01T00:11:46.947Z,102817.47
2022-12-01T00:14:13.311Z,102820.88
2022-12-01T00:16:41.037Z,102823.44
2022-12-01T00:19:08.662Z,102817.56
2022-12-01T00:21:35.028Z,102816.00
2022-12-01T00:24:01.433Z,102826.94
2022-12-01T00:26:28.154Z,102821.59
2022-12-01T00:28:59.454Z,102811.72
2022-12-01T00:31:26.883Z,102820.00
2022-12-01T00:33:53.787Z,102816.84
2022-12-01T00:36:20.498Z,102822.06
2022-12-01T00:38:46.932Z,102830.84
2022-12-01T00:41:13.718Z,102830.00
2022-12-01T00:43:40.900Z,102825.72
2022-12-01T00:46:07.366Z,102825.88
2022-12-01T00:48:33.827Z,102827.56
2022-12-01T00:51:00.343Z,102822.81
2022-12-01T00:53:26.740Z,102823.66
2022-12-01T00:55:55.712Z,102822.06
2022-12-01T00:58:23.369Z,102825.59
2022-12-01T01:00:56.350Z,102826.22
2022-12-01T01:03:22.750Z,102828.19
2022-12-01T01:05:49.144Z,102830.38
2022-12-01T01:08:15.495Z,102826.09
2022-12-01T01:10:44.400Z,102829.50
2022-12-01T01:13:12.138Z,102832.91
2022-12-01T01:15:39.460Z,102827.56
2022-12-01T01:18:07.005Z,102824.03
2022-12-01T01:20:33.521Z,102824.03
2022-12-01T01:22:59.949Z,102829.50
2022-12-01T01:25:26.387Z,102832.06
2022-12-01T01:27:52.739Z,102838.25
2022-12-01T01:30:19.397Z,102841.91
2022-12-01T01:32:45.830Z,102842.63
2022-12-01T01:35:12.178Z,102839.13
2022-12-01T01:37:39.236Z,102840.94
2022-12-01T01:40:06.380Z,102845.53
2022-12-01T01:42:32.797Z,102844.59
2022-12-01T01:44:59.220Z,102849.81
2022-12-01T01:47:30.593Z,102856.88
2022-12-01T01:50:05.068Z,102854.94
2022-12-01T01:52:33.160Z,102846.91
2022-12-01T01:55:00.201Z,102848.97
2022-12-01T01:57:30.688Z,102848.00
2022-12-01T02:00:04.744Z,102850.44
2022-12-01T02:02:43.419Z,102839.72
2022-12-01T02:05:14.147Z,102853.97
2022-12-01T02:07:41.322Z,102846.78
2022-12-01T02:10:10.961Z,102839.72
2022-12-01T02:12:46.758Z,102835.22
2022-12-01T02:15:23.126Z,102836.06
2022-12-01T02:17:55.790Z,102844.00
2022-12-01T02:20:49.567Z,102838.53
2022-12-01T02:23:47.795Z,102823.44
2022-12-01T02:26:43.645Z,102820.88
2022-12-01T02:29:41.689Z,102828.19
2022-12-01T02:32:35.513Z,102830.00
2022-12-01T02:35:14.537Z,102824.53
2022-12-01T02:38:08.285Z,102832.41
2022-12-01T02:40:41.430Z,102835.84
2022-12-01T02:43:17.977Z,102835.09
2022-12-01T02:45:56.187Z,102834.50
2022-12-01T02:48:34.717Z,102832.78
2022-12-01T02:51:07.751Z,102829.38
2022-12-01T02:53:34.438Z,102829.38
2022-12-01T02:56:00.975Z,102831.09
2022-12-01T02:58:27.406Z,102843.84
2022-12-01T03:01:07.149Z,102833.16
2022-12-01T03:03:48.848Z,102830.47
2022-12-01T03:06:36.593Z,102821.81
2022-12-01T03:09:14.889Z,102829.63
2022-12-01T03:12:00.911Z,102831.44
2022-12-01T03:14:46.642Z,102827.78
2022-12-01T03:17:23.981Z,102836.78
2022-12-01T03:19:57.662Z,102834.59
2022-12-01T03:22:37.248Z,102839.88
2022-12-01T03:25:04.403Z,102837.06
2022-12-01T03:27:35.203Z,102841.66
2022-12-01T03:30:04.317Z,102837.19
2022-12-01T03:32:41.700Z,102840.72
2022-12-01T03:35:14.435Z,102836.56
2022-12-01T03:37:48.018Z,102838.50
2022-12-01T03:40:19.582Z,102836.56
2022-12-01T03:43:00.752Z,102836.78
2022-12-01T03:45:36.362Z,102836.78
2022-12-01T03:48:03.004Z,102835.94
2022-12-01T03:50:41.188Z,102833.38
2022-12-01T03:53:14.312Z,102833.63
2022-12-01T03:55:43.797Z,102829.00
2022-12-01T03:58:18.492Z,102821.81
2022-12-01T04:00:49.860Z,102822.94
2022-12-01T04:03:18.574Z,102829.84
2022-12-01T04:05:45.034Z,102830.84
2022-12-01T04:08:11.658Z,102822.66
2022-12-01T04:10:38.142Z,102822.66
2022-12-01T04:13:04.560Z,102825.97
2022-12-01T04:15:30.950Z,102824.88
2022-12-01T04:17:57.350Z,102823.81
2022-12-01T04:20:23.699Z,102822.69
2022-12-01T04:22:50.179Z,102824.53
2022-12-01T04:25:16.704Z,102821.72
2022-12-01T04:27:43.054Z,102824.28
2022-12-01T04:30:09.920Z,102830.72
2022-12-01T04:32:41.551Z,102838.75
2022-12-01T04:35:09.697Z,102836.91
2022-12-01T04:37:36.882Z,102840.56
2022-12-01T04:40:03.926Z,102843.25
2022-12-01T04:42:30.340Z,102842.88
2022-12-01T04:44:56.813Z,102833.38
2022-12-01T04:47:23.302Z,102844.06
2022-12-01T04:49:49.905Z,102834.25
2022-12-01T04:52:16.564Z,102845.06
2022-12-01T04:54:42.912Z,102850.63
2022-12-01T04:57:09.325Z,102844.09
2022-12-01T04:59:35.770Z,102841.50
2022-12-01T05:02:03.954Z,102847.59
2022-12-01T05:04:31.310Z,102853.81
2022-12-01T05:06:58.132Z,102850.38
2022-12-01T05:09:24.518Z,102850.50
2022-12-01T05:11:50.953Z,102849.03
2022-12-01T05:14:17.338Z,102843.06
2022-12-01T05:16:43.837Z,102849.88
2022-12-01T05:19:28.689Z,102857.06
2022-12-01T05:21:55.105Z,102862.53
2022-12-01T05:24:22.237Z,102861.56
2022-12-01T05:26:48.757Z,102861.56
2022-12-01T05:29:15.295Z,102864.13
2022-12-01T05:31:41.828Z,102860.47
2022-12-01T05:34:08.419Z,102864.00
2022-12-01T05:36:34.959Z,102864.97
2022-12-01T05:39:01.385Z,102849.75
2022-12-01T05:41:27.753Z,102856.94
2022-12-01T05:43:54.129Z,102855.09
2022-12-01T05:46:20.592Z,102854.25
2022-12-01T05:48:47.305Z,102847.97
2022-12-01T05:51:15.867Z,102847.84
2022-12-01T05:53:42.777Z,102849.66
2022-12-01T05:56:09.783Z,102856.72
2022-12-01T05:58:36.687Z,102843.56
2022-12-01T06:01:03.265Z,102853.31
2022-12-01T06:03:29.756Z,102852.34
2022-12-01T06:05:56.190Z,102855.09
2022-12-01T06:08:22.629Z,102844.41
2022-12-01T06:10:49.019Z,102848.81
2022-12-01T06:13:15.731Z,102850.63
2022-12-01T06:15:42.198Z,102853.41
2022-12-01T06:18:08.882Z,102856.94
2022-12-01T06:20:35.244Z,102856.94
2022-12-01T06:23:01.619Z,102864.00
2022-12-01T06:25:28.021Z,102863.88
2022-12-01T06:27:58.281Z,102867.53
2022-12-01T06:30:24.901Z,102870.31
2022-12-01T06:32:51.490Z,102865.81
2022-12-01T06:35:17.896Z,102872.88
2022-12-01T06:37:44.399Z,102872.97
2022-12-01T06:40:11.355Z,102875.56
2022-12-01T06:42:37.823Z,102884.66
2022-12-01T06:45:04.717Z,102887.34
2022-12-01T06:47:31.141Z,102886.34
2022-12-01T06:49:57.509Z,102891.00
2022-12-01T06:52:23.856Z,102892.69
2022-12-01T06:54:50.214Z,102895.50
2022-12-01T06:57:16.891Z,102892.56
2022-12-01T06:59:43.356Z,102896.13
2022-12-01T07:02:13.421Z,102896.84
2022-12-01T07:04:39.896Z,102893.44
2022-12-01T07:07:06.335Z,102883.81
2022-12-01T07:09:32.715Z,102895.38
2022-12-01T07:11:59.139Z,102894.16
2022-12-01T07:14:29.048Z,102896.38
2022-12-01T07:16:55.546Z,102896.84
2022-12-01T07:19:22.128Z,102900.72
2022-12-01T07:21:48.630Z,102897.19
2022-12-01T07:24:15.012Z,102905.34
2022-12-01T07:26:42.463Z,102909.59
2022-12-01T07:29:10.633Z,102907.75
2022-12-01T07:31:38.274Z,102911.91
2022-12-01T07:34:05.257Z,102903.97
2022-12-01T07:36:31.948Z,102908.47
2022-12-01T07:38:58.531Z,102912.13
2022-12-01T07:41:25.324Z,102915.00
2022-12-01T07:43:51.917Z,102910.50
2022-12-01T07:46:24.654Z,102921.34
2022-12-01T07:48:52.633Z,102921.56
2022-12-01T07:51:20.295Z,102928.88
2022-12-01T07:53:49.320Z,102929.47
2022-12-01T07:56:18.027Z,102932.03
2022-12-01T07:58:44.471Z,102936.28
2022-12-01T08:01:14.091Z,102937.75
2022-12-01T08:03:41.270Z,102936.88
2022-12-01T08:06:08.842Z,102943.19
2022-12-01T08:08:37.195Z,102943.72
2022-12-01T08:11:06.724Z,102947.88
2022-12-01T08:13:33.724Z,102945.91
2022-12-01T08:16:06.881Z,102944.09
2022-12-01T08:18:37.856Z,102949.22
2022-12-01T08:21:05.315Z,102949.94
2022-12-01T08:23:31.746Z,102946.31
2022-12-01T08:26:02.145Z,102947.16
2022-12-01T08:28:29.145Z,102950.34
2022-12-01T08:30:55.997Z,102945.84
2022-12-01T08:33:22.472Z,102946.06
2022-12-01T08:35:48.914Z,102951.31
2022-12-01T08:38:15.806Z,102948.66
2022-12-01T08:40:42.161Z,102947.66
2022-12-01T08:43:12.337Z,102944.00
2022-12-01T08:45:45.149Z,102952.56
2022-12-01T08:48:11.575Z,102949.53
2022-12-01T08:50:38.006Z,102946.75
2022-12-01T08:53:04.496Z,102945.66
2022-12-01T08:55:30.900Z,102950.25
2022-12-01T08:57:57.455Z,102945.88
2022-12-01T09:00:23.872Z,102946.03
2022-12-01T09:02:50.366Z,102940.75
2022-12-01T09:05:16.953Z,102946.75
2022-12-01T09:07:45.484Z,102943.84
2022-12-01T09:10:11.915Z,102933.63
2022-12-01T09:12:38.545Z,102935.94
2022-12-01T09:15:05.408Z,102937.53
2022-12-01T09:17:31.852Z,102937.19
2022-12-01T09:19:58.502Z,102939.78
2022-12-01T09:22:24.843Z,102942.34
2022-12-01T09:24:51.196Z,102945.75
2022-12-01T09:27:17.598Z,102944.41
2022-12-01T09:29:43.954Z,102948.66
2022-12-01T09:32:10.420Z,102957.75
2022-12-01T09:34:36.890Z,102939.38
2022-12-01T09:37:03.466Z,102944.72
2022-12-01T09:39:29.879Z,102944.09
2022-12-01T09:42:07.638Z,102943.63
2022-12-01T09:44:52.503Z,102936.47
2022-12-01T09:47:25.456Z,102951.44
2022-12-01T09:50:11.709Z,102946.06
2022-12-01T09:52:46.340Z,102946.56
2022-12-01T09:55:15.085Z,102947.66
2022-12-01T09:57:42.573Z,102946.81
2022-12-01T10:00:22.724Z,102942.19
2022-12-01T10:02:55.908Z,102940.34
2022-12-01T10:05:25.072Z,102934.28
2022-12-01T10:08:04.430Z,102934.38
2022-12-01T10:10:36.269Z,102934.38
2022-12-01T10:13:02.815Z,102936.72
2022-12-01T10:15:45.473Z,102933.44
2022-12-01T10:18:36.514Z,102936.72
2022-12-01T10:21:25.354Z,102930.16
2022-12-01T10:23:59.031Z,102928.00
2022-12-01T10:26:51.396Z,102923.97
2022-12-01T10:29:27.480Z,102924.97
2022-12-01T10:31:58.048Z,102928.50
2022-12-01T10:34:32.098Z,102925.06
2022-12-01T10:36:58.703Z,102924.81
2022-12-01T10:39:36.911Z,102920.31
2022-12-01T10:42:14.843Z,102925.22
2022-12-01T10:44:42.996Z,102919.63
2022-12-01T10:47:19.460Z,102915.97
2022-12-01T10:49:46.164Z,102907.06
2022-12-01T10:52:42.016Z,102910.84
2022-12-01T10:55:23.706Z,102916.31
2022-12-01T10:57:52.038Z,102907.41
2022-12-01T11:00:58.193Z,102914.72
2022-12-01T11:03:23.983Z,102919.09
2022-12-01T11:05:54.199Z,102910.00
2022-12-01T11:08:39.086Z,102905.72
2022-12-01T11:11:06.595Z,102900.97
2022-12-01T11:13:36.781Z,102899.38
2022-12-01T11:16:06.261Z,102901.97
2022-12-01T11:18:38.307Z,102896.47
2022-12-01T11:21:12.887Z,102899.88
2022-12-01T11:23:50.494Z,102900.13
2022-12-01T11:26:22.293Z,102894.63
2022-12-01T11:28:54.890Z,102898.19
2022-12-01T11:31:34.685Z,102892.69
2022-12-01T11:34:01.279Z,102898.16
2022-12-01T11:36:55.860Z,102892.44
2022-12-01T11:39:34.788Z,102892.56
2022-12-01T11:42:22.912Z,102881.47
2022-12-01T11:45:05.234Z,102885.50
2022-12-01T11:47:31.675Z,102890.25
2022-12-01T11:50:03.096Z,102888.19
2022-12-01T11:52:36.456Z,102887.97
2022-12-01T11:55:12.081Z,102882.00
2022-12-01T11:57:45.688Z,102874.06
2022-12-01T12:00:18.109Z,102877.97
2022-12-01T12:02:44.524Z,102869.91
2022-12-01T12:05:35.479Z,102869.91
2022-12-01T12:08:09.069Z,102872.22
2022-12-01T12:10:55.677Z,102869.53
2022-12-01T12:13:36.878Z,102868.47
2022-12-01T12:16:18.499Z,102869.69
2022-12-01T12:19:22.460Z,102858.59
2022-12-01T12:22:24.324Z,102857.75
2022-12-01T12:25:35.940Z,102857.75
2022-12-01T12:28:28.535Z,102848.84
2022-12-01T12:31:14.016Z,102858.25
2022-12-01T12:33:49.554Z,102860.78
2022-12-01T12:36:42.653Z,102859.44
2022-12-01T12:39:59.474Z,102860.28
2022-12-01T12:42:41.943Z,102852.97
2022-12-01T12:45:21.980Z,102859.81
2022-12-01T12:48:23.357Z,102855.91
2022-12-01T12:51:11.614Z,102853.84
2022-12-01T12:53:48.070Z,102851.75
2022-12-01T12:56:18.546Z,102854.91
2022-12-01T12:59:07.045Z,102848.72
2022-12-01T13:02:05.572Z,102847.00
2022-12-01T13:04:40.497Z,102841.41
2022-12-01T13:07:28.228Z,102842.97
2022-12-01T13:10:02.622Z,102844.09
2022-12-01T13:12:32.225Z,102846.63
2022-12-01T13:15:13.644Z,102847.47
2022-12-01T13:17:44.298Z,102845.03
2022-12-01T13:20:17.409Z,102846.41
2022-12-01T13:22:46.243Z,102837.91
2022-12-01T13:25:27.418Z,102841.19
2022-12-01T13:27:56.850Z,102840.19
2022-12-01T13:30:25.766Z,102845.19
2022-12-01T13:33:04.156Z,102849.69
2022-12-01T13:35:38.569Z,102844.56
2022-12-01T13:38:31.234Z,102835.22
2022-12-01T13:41:18.968Z,102835.22
2022-12-01T13:44:08.894Z,102833.75
2022-12-01T13:46:44.149Z,102827.81
2022-12-01T13:49:42.123Z,102826.09
2022-12-01T13:52:20.746Z,102820.25
2022-12-01T13:55:11.987Z,102825.50
2022-12-01T13:57:56.360Z,102828.03
2022-12-01T14:00:32.532Z,102817.78
2022-12-01T14:03:17.111Z,102815.97
2022-12-01T14:05:53.756Z,102818.53
2022-12-01T14:08:25.922Z,102820.63
2022-12-01T14:11:22.509Z,102819.53
2022-12-01T14:14:00.158Z,102813.19
2022-12-01T14:16:53.748Z,102822.31
2022-12-01T14:19:48.138Z,102813.81
2022-12-01T14:22:43.774Z,102814.66
2022-12-01T14:25:22.466Z,102814.66
2022-12-01T14:27:51.972Z,102811.25
2022-12-01T14:30:45.709Z,102818.44
2022-12-01T14:33:50.976Z,102817.94
2022-12-01T14:36:23.487Z,102814.28
2022-12-01T14:38:53.757Z,102813.94
2022-12-01T14:41:26.964Z,102818.53
2022-12-01T14:44:05.421Z,102818.06
2022-12-01T14:47:15.837Z,102813.66
2022-12-01T14:49:55.281Z,102816.34
2022-12-01T14:52:33.490Z,102810.03
2022-12-01T14:55:04.752Z,102815.78
2022-12-01T14:57:39.714Z,102807.94
2022-12-01T15:00:10.896Z,102814.88
2022-12-01T15:02:57.119Z,102811.88
2022-12-01T15:05:29.807Z,102813.88
2022-12-01T15:08:18.754Z,102812.66
2022-12-01T15:10:52.420Z,102817.41
2022-12-01T15:13:41.736Z,102815.97
2022-12-01T15:16:17.511Z,102817.94
2022-12-01T15:18:44.340Z,102814.28
2022-12-01T15:21:17.983Z,102819.75
2022-12-01T15:24:02.502Z,102807.69
2022-12-01T15:26:37.643Z,102804.53
2022-12-01T15:29:17.545Z,102811.97
2022-12-01T15:31:48.170Z,102806.75
2022-12-01T15:34:18.864Z,102809.66
2022-12-01T15:36:46.370Z,102808.81
2022-12-01T15:39:16.788Z,102811.25
2022-12-01T15:41:46.332Z,102818.44
2022-12-01T15:44:26.239Z,102823.06
2022-12-01T15:46:52.688Z,102809.06
2022-12-01T15:49:27.541Z,102811.97
2022-12-01T15:51:55.873Z,102824.88
2022-12-01T15:54:26.483Z,102821.72
2022-12-01T15:56:55.177Z,102818.31
2022-12-01T15:59:28.529Z,102826.59
2022-12-01T16:01:56.818Z,102825.88
2022-12-01T16:04:26.680Z,102822.47
2022-12-01T16:07:00.666Z,102826.09
2022-12-01T16:09:37.393Z,102820.66
2022-12-01T16:12:06.924Z,102822.47
2022-12-01T16:14:34.604Z,102824.41
2022-12-01T16:17:01.908Z,102826.97
2022-12-01T16:19:33.021Z,102824.31
2022-12-01T16:22:11.594Z,102827.81
2022-12-01T16:24:46.968Z,102827.81
2022-12-01T16:27:23.181Z,102825.00
2022-12-01T16:29:55.841Z,102826.72
2022-12-01T16:32:30.747Z,102830.38
2022-12-01T16:34:57.412Z,102823.31
2022-12-01T16:37:24.623Z,102816.00
2022-12-01T16:39:52.334Z,102825.16
2022-12-01T16:42:21.123Z,102814.53
2022-12-01T16:44:48.911Z,102810.78
2022-12-01T16:47:17.426Z,102815.06
2022-12-01T16:49:44.009Z,102803.38
2022-12-01T16:54:57.749Z,102806.88
2022-12-01T16:57:24.203Z,102806.75
2022-12-01T16:59:50.630Z,102814.78
2022-12-01T17:02:17.894Z,102809.69
2022-12-01T17:04:44.406Z,102804.06
2022-12-01T17:07:10.787Z,102802.25
2022-12-01T17:09:37.171Z,102808.34
2022-12-01T17:12:03.765Z,102814.69
2022-12-01T17:14:30.209Z,102811.88
2022-12-01T17:16:58.253Z,102812.72
2022-12-01T17:19:24.698Z,102807.38
2022-12-01T17:21:51.148Z,102810.03
2022-12-01T17:24:19.180Z,102810.78
2022-12-01T17:26:45.801Z,102810.78
2022-12-01T17:29:12.195Z,102813.34
2022-12-01T17:31:38.694Z,102814.19
2022-12-01T17:34:05.409Z,102810.66
2022-12-01T17:36:31.966Z,102807.13
2022-12-01T17:38:58.731Z,102802.63
2022-12-01T17:41:31.943Z,102807.84
2022-12-01T17:43:58.397Z,102808.81
2022-12-01T17:46:24.939Z,102804.31
2022-12-01T17:48:51.438Z,102807.00
2022-12-01T17:51:17.840Z,102804.44
2022-12-01T17:53:44.380Z,102806.16
2022-12-01T17:56:13.136Z,102805.44
2022-12-01T17:58:40.167Z,102802.00
2022-12-01T18:01:12.357Z,102802.75
2022-12-01T18:03:40.241Z,102798.25
2022-12-01T18:06:06.982Z,102798.13
2022-12-01T18:08:35.693Z,102799.09
2022-12-01T18:11:07.459Z,102799.09
2022-12-01T18:13:43.812Z,102791.91
2022-12-01T18:16:13.285Z,102798.13
2022-12-01T18:18:39.947Z,102797.41
2022-12-01T18:21:08.125Z,102799.22
2022-12-01T18:23:34.937Z,102789.59
2022-12-01T18:26:16.006Z,102801.78
2022-12-01T18:28:43.487Z,102805.53
2022-12-01T18:31:13.141Z,102806.53
2022-12-01T18:33:41.819Z,102799.22
2022-12-01T18:36:13.851Z,102801.91
2022-12-01T18:38:40.842Z,102799.47
2022-12-01T18:41:07.658Z,102805.66
2022-12-01T18:43:34.230Z,102802.25
2022-12-01T18:46:03.854Z,102801.28
2022-12-01T18:48:30.720Z,102805.53
2022-12-01T18:51:02.923Z,102802.25
2022-12-01T18:53:29.578Z,102794.34
2022-12-01T18:55:56.118Z,102806.75
2022-12-01T18:58:22.642Z,102800.31
2022-12-01T19:00:49.577Z,102802.16
2022-12-01T19:03:16.183Z,102806.38
2022-12-01T19:05:42.539Z,102800.31
2022-12-01T19:08:08.992Z,102797.88
2022-12-01T19:10:35.937Z,102797.88
2022-12-01T19:13:02.483Z,102790.97
2022-12-01T19:15:29.006Z,102796.31
2022-12-01T19:17:55.471Z,102801.78
2022-12-01T19:20:21.927Z,102804.44
2022-12-01T19:22:48.453Z,102794.47
2022-12-01T19:25:14.924Z,102797.16
2022-12-01T19:27:41.365Z,102794.47
2022-12-01T19:30:08.206Z,102799.09
2022-12-01T19:32:34.819Z,102799.69
2022-12-01T19:35:01.562Z,102800.81
2022-12-01T19:37:29.414Z,102803.72
2022-12-01T19:39:55.873Z,102811.38
2022-12-01T19:42:22.308Z,102813.81
2022-12-01T19:44:49.171Z,102809.31
2022-12-01T19:47:20.640Z,102806.41
2022-12-01T19:49:48.527Z,102814.66
2022-12-01T19:52:14.991Z,102811.13
2022-12-01T19:54:41.396Z,102809.06
2022-12-01T19:57:07.747Z,102810.06
2022-12-01T19:59:34.160Z,102803.84
2022-12-01T20:02:00.589Z,102802.75
2022-12-01T20:04:27.049Z,102805.19
2022-12-01T20:06:53.478Z,102803.22
2022-12-01T20:09:19.876Z,102795.94
2022-12-01T20:11:46.315Z,102806.41
2022-12-01T20:14:12.929Z,102794.97
2022-12-01T20:16:40.128Z,102795.94
2022-12-01T20:19:06.954Z,102802.88
2022-12-01T20:21:36.114Z,102796.66
2022-12-01T20:24:05.361Z,102800.44
2022-12-01T20:26:35.617Z,102796.78
2022-12-01T20:29:08.436Z,102803.97
2022-12-01T20:31:35.921Z,102800.53
2022-12-01T20:34:05.949Z,102805.78
2022-12-01T20:36:32.429Z,102808.56
2022-12-01T20:38:58.899Z,102809.19
2022-12-01T20:41:25.536Z,102807.38
2022-12-01T20:43:52.223Z,102802.50
2022-12-01T20:46:18.635Z,102800.81
2022-12-01T20:48:46.108Z,102806.03
2022-12-01T20:51:14.565Z,102803.94
2022-12-01T20:53:50.713Z,102798.69
2022-12-01T20:56:26.196Z,102800.16
2022-12-01T20:58:52.795Z,102804.53
2022-12-01T21:01:19.273Z,102797.00
2022-12-01T21:03:46.281Z,102800.41
2022-12-01T21:06:14.590Z,102801.25
2022-12-01T21:08:43.491Z,102799.16
2022-12-01T21:11:47.779Z,102799.16
2022-12-01T21:14:32.312Z,102795.28
2022-12-01T21:17:08.431Z,102793.59
2022-12-01T21:20:05.214Z,102783.50
2022-12-01T21:22:31.888Z,102784.09
2022-12-01T21:25:07.458Z,102775.72
2022-12-01T21:27:34.025Z,102775.72
2022-12-01T21:30:00.733Z,102780.34
2022-12-01T21:32:31.197Z,102787.50
2022-12-01T21:35:07.566Z,102779.63
2022-12-01T21:37:34.180Z,102771.81
2022-12-01T21:40:00.568Z,102771.94
2022-12-01T21:42:30.356Z,102772.44
2022-12-01T21:44:57.610Z,102774.28
2022-12-01T21:47:27.029Z,102768.91
2022-12-01T21:49:57.582Z,102767.69
2022-12-01T21:52:41.755Z,102763.53
2022-12-01T21:55:14.155Z,102763.06
2022-12-01T21:57:46.503Z,102764.75
2022-12-01T22:00:29.544Z,102763.06
2022-12-01T22:03:07.768Z,102760.97
2022-12-01T22:06:01.096Z,102763.03
2022-12-01T22:08:35.787Z,102762.91
2022-12-01T22:11:08.310Z,102759.38
2022-12-01T22:13:40.812Z,102770.34
2022-12-01T22:16:13.827Z,102773.97
2022-12-01T22:18:44.180Z,102769.09
2022-12-01T22:21:23.006Z,102761.19
2022-12-01T22:23:56.100Z,102764.63
2022-12-01T22:26:22.925Z,102762.53
2022-12-01T22:28:56.559Z,102767.03
2022-12-01T22:31:23.159Z,102758.41
2022-12-01T22:34:02.801Z,102746.22
2022-12-01T22:36:31.682Z,102756.22
2022-12-01T22:38:58.630Z,102758.75
2022-12-01T22:41:26.738Z,102760.13
2022-12-01T22:43:57.518Z,102755.84
2022-12-01T22:46:24.028Z,102755.84
2022-12-01T22:48:59.261Z,102751.34
2022-12-01T22:51:39.448Z,102758.13
2022-12-01T22:54:14.586Z,102760.09
2022-12-01T22:56:58.847Z,102759.34
2022-12-01T22:59:33.624Z,102753.84
2022-12-01T23:02:06.207Z,102756.31
2022-12-01T23:04:38.322Z,102753.72
2022-12-01T23:07:35.010Z,102754.72
2022-12-01T23:10:06.611Z,102759.06
2022-12-01T23:12:34.948Z,102752.66
2022-12-01T23:15:35.155Z,102741.84
2022-12-01T23:18:20.161Z,102747.19
2022-12-01T23:20:49.812Z,102743.03
2022-12-01T23:23:31.433Z,102735.69
2022-12-01T23:25:59.018Z,102749.00
2022-12-01T23:28:25.423Z,102729.59
2022-12-01T23:30:55.193Z,102730.22
2022-12-01T23:33:28.179Z,102725.72
2022-12-01T23:36:12.212Z,102727.53
2022-12-01T23:38:51.378Z,102729.09
2022-12-01T23:41:37.156Z,102732.00
2022-12-01T23:44:36.705Z,102735.44
2022-12-01T23:47:03.482Z,102733.59
2022-12-01T23:49:33.065Z,102733.38
2022-12-01T23:52:02.037Z,102719.13
2022-12-01T23:54:35.011Z,102719.25
2022-12-01T23:57:03.724Z,102718.38
2022-12-01T23:59:31.336Z,102721.16
